DK-0010 weather

Århus Glider Field
Århus, Central Jutland, Denmark

Public forecast

Using degrees Celsius for public forecast. Weather courtesy of forecast.io.

METAR (pilot weather report)

Closest report is Aarhus Airport, 19.5 nm (36.1 km) ENE. Retrieved 2019/05/21 13:50 UTC (20 minutes ago):

EKAH 211350Z AUTO 34008KT 9999NDV BKN009/// BKN170/// 20/17 Q1007

TAF (pilot weather forecast)

Closest forecast is Aarhus Airport, 19.5 nm (36.1 km) ENE. Retrieved 2019/05/21 12:00 UTC (2 hours ago):

TAF EKAH 211012Z 2112/2212 33008KT 9999 SCT015 TEMPO 2112/2117 4000 TSRA BKN008 SCT020CB TEMPO 2117/2204 SHRA BKN008 SCT020CB BECMG 2204/2206 2000 BR BKN002 TEMPO 2206/2208 5000 BKN006 BECMG 2208/2210 9999 NSW BKN015